createdAt,value
2023-04-17T00:00:04.934Z,19.58
2023-04-17T00:02:40.759Z,20.90
2023-04-17T00:05:09.194Z,19.30
2023-04-17T00:07:41.483Z,16.85
2023-04-17T00:10:10.406Z,17.33
2023-04-17T00:12:37.913Z,16.77
2023-04-17T00:15:05.913Z,18.65
2023-04-17T00:17:33.284Z,18.80
2023-04-17T00:20:01.438Z,17.50
2023-04-17T00:22:28.831Z,19.77
2023-04-17T00:24:56.416Z,20.42
2023-04-17T00:27:23.906Z,46.38
2023-04-17T00:29:52.251Z,53.72
2023-04-17T00:32:19.826Z,24.70
2023-04-17T00:34:47.462Z,21.17
2023-04-17T00:37:14.699Z,19.83
2023-04-17T00:39:42.180Z,18.98
2023-04-17T00:42:09.626Z,16.80
2023-04-17T00:44:37.089Z,17.20
2023-04-17T00:47:04.619Z,17.27
2023-04-17T00:49:33.992Z,20.13
2023-04-17T00:52:01.770Z,30.02
2023-04-17T00:54:31.985Z,18.45
2023-04-17T00:57:01.411Z,18.33
2023-04-17T00:59:29.807Z,19.20
2023-04-17T01:01:56.905Z,18.70
2023-04-17T01:04:24.263Z,18.33
2023-04-17T01:06:53.514Z,18.42
2023-04-17T01:09:22.039Z,20.88
2023-04-17T01:11:49.353Z,18.92
2023-04-17T01:14:16.944Z,17.52
2023-04-17T01:16:44.960Z,17.52
2023-04-17T01:19:15.337Z,19.63
2023-04-17T01:21:44.877Z,17.98
2023-04-17T01:24:12.297Z,17.58
2023-04-17T01:26:40.374Z,17.80
2023-04-17T01:29:07.761Z,18.48
2023-04-17T01:31:36.285Z,19.38
2023-04-17T01:34:03.623Z,20.90
2023-04-17T01:36:32.046Z,20.33
2023-04-17T01:38:59.592Z,19.50
2023-04-17T01:41:27.115Z,22.45
2023-04-17T01:43:54.538Z,18.90
2023-04-17T01:46:22.098Z,28.33
2023-04-17T01:48:49.466Z,55.60
2023-04-17T01:51:16.932Z,26.65
2023-04-17T01:53:44.448Z,19.38
2023-04-17T01:56:13.948Z,18.15
2023-04-17T01:58:41.323Z,21.88
2023-04-17T02:01:08.892Z,25.35
2023-04-17T02:03:37.576Z,26.60
2023-04-17T02:06:04.904Z,26.65
2023-04-17T02:08:34.781Z,20.05
2023-04-17T02:11:02.570Z,18.88
2023-04-17T02:13:29.667Z,23.75
2023-04-17T02:15:59.275Z,24.08
2023-04-17T02:18:28.833Z,24.40
2023-04-17T02:20:57.047Z,26.23
2023-04-17T02:23:24.695Z,26.38
2023-04-17T02:25:51.962Z,35.35
2023-04-17T02:28:19.625Z,25.92
2023-04-17T02:30:47.028Z,21.67
2023-04-17T02:33:14.521Z,23.98
2023-04-17T02:35:41.971Z,33.80
2023-04-17T02:38:09.484Z,19.10
2023-04-17T02:40:36.828Z,20.58
2023-04-17T02:43:04.257Z,25.88
2023-04-17T02:45:31.740Z,27.70
2023-04-17T02:47:59.244Z,25.50
2023-04-17T02:50:27.615Z,24.67
2023-04-17T02:52:55.172Z,35.67
2023-04-17T02:55:22.658Z,38.15
2023-04-17T02:57:50.208Z,33.15
2023-04-17T03:00:19.490Z,31.30
2023-04-17T03:02:47.248Z,26.15
2023-04-17T03:05:15.297Z,23.95
2023-04-17T03:07:43.457Z,26.23
2023-04-17T03:10:11.978Z,28.27
2023-04-17T03:12:40.738Z,36.22
2023-04-17T03:15:09.185Z,31.25
2023-04-17T03:17:37.370Z,32.33
2023-04-17T03:20:06.309Z,25.98
2023-04-17T03:22:34.063Z,23.80
2023-04-17T03:25:01.413Z,24.13
2023-04-17T03:27:28.715Z,25.13
2023-04-17T03:29:58.912Z,23.40
2023-04-17T03:32:26.238Z,24.45
2023-04-17T03:34:53.754Z,22.55
2023-04-17T03:37:21.387Z,34.60
2023-04-17T03:39:48.551Z,27.80
2023-04-17T03:42:16.225Z,27.92
2023-04-17T03:44:43.596Z,26.73
2023-04-17T03:47:11.432Z,23.00
2023-04-17T03:49:39.054Z,21.23
2023-04-17T03:52:06.477Z,19.10
2023-04-17T03:54:35.935Z,21.83
2023-04-17T03:57:05.614Z,21.90
2023-04-17T03:59:33.420Z,23.30
2023-04-17T04:02:00.932Z,22.58
2023-04-17T04:04:28.347Z,32.90
2023-04-17T04:06:57.940Z,39.22
2023-04-17T04:09:28.287Z,57.20
2023-04-17T04:11:55.480Z,40.53
2023-04-17T04:14:22.943Z,30.65
2023-04-17T04:16:50.352Z,28.88
2023-04-17T04:19:17.931Z,30.95
2023-04-17T04:21:45.492Z,35.17
2023-04-17T04:24:20.578Z,30.38
2023-04-17T04:26:49.985Z,30.48
2023-04-17T04:29:18.252Z,28.92
2023-04-17T04:31:47.006Z,29.58
2023-04-17T04:34:17.341Z,29.27
2023-04-17T04:36:50.820Z,32.30
2023-04-17T04:39:21.548Z,34.50
2023-04-17T04:41:52.436Z,31.15
2023-04-17T04:44:20.611Z,33.30
2023-04-17T04:46:50.247Z,30.23
2023-04-17T04:49:19.672Z,31.40
2023-04-17T04:51:47.001Z,33.88
2023-04-17T04:54:14.361Z,36.58
2023-04-17T04:56:45.104Z,35.17
2023-04-17T04:59:12.572Z,42.53
2023-04-17T05:01:40.209Z,45.03
2023-04-17T05:04:07.429Z,42.95
2023-04-17T05:06:35.841Z,42.35
2023-04-17T05:09:03.316Z,43.58
2023-04-17T05:11:31.105Z,46.63
2023-04-17T05:13:58.241Z,46.45
2023-04-17T05:16:26.954Z,46.50
2023-04-17T05:18:56.143Z,47.55
2023-04-17T05:21:23.758Z,45.63
2023-04-17T05:23:53.271Z,47.05
2023-04-17T05:26:23.523Z,50.40
2023-04-17T05:28:51.648Z,43.72
2023-04-17T05:31:19.826Z,59.70
2023-04-17T05:33:48.295Z,126.13
2023-04-17T05:36:16.757Z,47.00
2023-04-17T05:38:46.058Z,39.97
2023-04-17T05:41:13.494Z,39.40
2023-04-17T05:43:42.986Z,38.35
2023-04-17T05:46:10.722Z,39.05
2023-04-17T05:48:37.807Z,39.47
2023-04-17T05:51:05.157Z,39.28
2023-04-17T05:53:33.646Z,38.05
2023-04-17T05:56:02.001Z,38.83
2023-04-17T05:58:29.326Z,38.42
2023-04-17T06:01:06.571Z,45.47
2023-04-17T06:03:35.061Z,42.20
2023-04-17T06:06:02.655Z,46.88
2023-04-17T06:08:30.097Z,47.92
2023-04-17T06:10:57.523Z,46.67
2023-04-17T06:13:24.889Z,48.45
2023-04-17T06:15:52.289Z,46.42
2023-04-17T06:18:20.831Z,47.88
2023-04-17T06:20:49.220Z,46.70
2023-04-17T06:23:16.906Z,46.85
2023-04-17T06:25:46.391Z,46.08
2023-04-17T06:28:14.708Z,47.10
2023-04-17T06:30:42.143Z,45.38
2023-04-17T06:33:12.657Z,47.33
2023-04-17T06:35:42.269Z,47.10
2023-04-17T06:38:09.967Z,44.58
2023-04-17T06:40:38.862Z,48.00
2023-04-17T06:43:08.079Z,46.10
2023-04-17T06:45:35.966Z,44.97
2023-04-17T06:48:03.116Z,44.00
2023-04-17T06:50:30.642Z,45.10
2023-04-17T06:52:57.936Z,43.92
2023-04-17T06:55:27.471Z,45.72
2023-04-17T06:57:56.970Z,43.42
2023-04-17T07:00:24.582Z,43.05
2023-04-17T07:02:52.039Z,47.05
2023-04-17T07:05:19.470Z,46.28
2023-04-17T07:07:47.185Z,45.63
2023-04-17T07:10:16.219Z,44.28
2023-04-17T07:12:43.763Z,45.33
2023-04-17T07:15:11.595Z,46.08
2023-04-17T07:17:39.196Z,44.70
2023-04-17T07:20:08.584Z,45.72
2023-04-17T07:22:36.127Z,45.58
2023-04-17T07:25:04.268Z,45.95
2023-04-17T07:27:39.619Z,46.05
2023-04-17T07:30:08.852Z,44.88
2023-04-17T07:32:36.706Z,44.75
2023-04-17T07:35:04.858Z,42.78
2023-04-17T07:37:35.088Z,40.53
2023-04-17T07:40:04.989Z,39.55
2023-04-17T07:42:32.153Z,41.38
2023-04-17T07:44:59.776Z,40.80
2023-04-17T07:47:28.250Z,42.13
2023-04-17T07:49:58.008Z,41.95
2023-04-17T07:52:25.706Z,42.00
2023-04-17T07:54:54.219Z,45.65
2023-04-17T07:57:22.533Z,49.45
2023-04-17T07:59:49.967Z,51.60
2023-04-17T08:02:19.057Z,42.28
2023-04-17T08:04:47.813Z,40.42
2023-04-17T08:07:15.482Z,49.28
2023-04-17T08:09:44.569Z,41.25
2023-04-17T08:12:11.907Z,42.78
2023-04-17T08:14:42.335Z,42.35
2023-04-17T08:17:10.187Z,42.10
2023-04-17T08:19:37.333Z,40.58
2023-04-17T08:22:06.473Z,41.53
2023-04-17T08:24:33.803Z,43.88
2023-04-17T08:27:01.810Z,41.33
2023-04-17T08:29:29.278Z,40.70
2023-04-17T08:32:12.623Z,41.55
2023-04-17T08:34:42.996Z,42.58
2023-04-17T08:37:10.544Z,42.03
2023-04-17T08:39:37.949Z,44.70
2023-04-17T08:42:18.179Z,45.05
2023-04-17T08:44:46.474Z,43.33
2023-04-17T08:47:13.989Z,44.55
2023-04-17T08:49:44.134Z,44.13
2023-04-17T08:52:12.407Z,41.42
2023-04-17T08:54:40.632Z,42.50
2023-04-17T08:57:08.200Z,40.72
2023-04-17T08:59:35.595Z,40.95
2023-04-17T09:02:08.635Z,41.17
2023-04-17T09:04:38.084Z,41.40
2023-04-17T09:07:07.100Z,41.17
2023-04-17T09:09:54.020Z,42.65
2023-04-17T09:12:23.319Z,41.03
2023-04-17T09:14:51.164Z,41.50
2023-04-17T09:17:20.579Z,40.40
2023-04-17T09:20:12.476Z,42.70
2023-04-17T09:22:45.201Z,41.85
2023-04-17T09:25:20.874Z,41.33
2023-04-17T09:27:50.403Z,43.30
2023-04-17T09:30:17.870Z,40.45
2023-04-17T09:32:45.204Z,42.17
2023-04-17T09:35:26.263Z,40.95
2023-04-17T09:37:59.668Z,39.35
2023-04-17T09:40:42.661Z,37.58
2023-04-17T09:43:11.101Z,36.58
2023-04-17T09:45:42.670Z,37.53
2023-04-17T09:48:12.252Z,37.50
2023-04-17T09:50:41.218Z,36.47
2023-04-17T09:53:09.507Z,34.95
2023-04-17T09:55:39.192Z,35.25
2023-04-17T09:58:08.328Z,34.97
2023-04-17T10:00:36.787Z,35.10
2023-04-17T10:03:07.679Z,35.53
2023-04-17T10:05:36.871Z,32.63
2023-04-17T10:08:05.098Z,34.38
2023-04-17T10:10:38.628Z,33.28
2023-04-17T10:13:12.844Z,34.00
2023-04-17T10:15:40.193Z,34.13
2023-04-17T10:18:24.966Z,33.72
2023-04-17T10:20:54.206Z,32.90
2023-04-17T10:23:36.811Z,33.28
2023-04-17T10:26:26.038Z,33.33
2023-04-17T10:28:55.120Z,34.63
2023-04-17T10:31:25.820Z,34.70
2023-04-17T10:33:54.657Z,33.35
2023-04-17T10:36:40.797Z,36.83
2023-04-17T10:39:16.612Z,34.88
2023-04-17T10:42:06.133Z,34.22
2023-04-17T10:44:40.124Z,34.50
2023-04-17T10:49:58.743Z,36.38
2023-04-17T10:52:43.361Z,38.53
2023-04-17T10:55:22.266Z,33.95
2023-04-17T10:58:05.142Z,33.13
2023-04-17T11:00:37.489Z,39.53
2023-04-17T11:03:06.997Z,38.08
2023-04-17T11:05:36.198Z,37.35
2023-04-17T11:08:03.757Z,40.58
2023-04-17T11:10:35.696Z,40.88
2023-04-17T11:13:03.460Z,42.50
2023-04-17T11:15:34.406Z,41.50
2023-04-17T11:18:03.374Z,41.20
2023-04-17T11:20:32.346Z,37.95
2023-04-17T11:23:05.720Z,38.83
2023-04-17T11:25:34.763Z,38.92
2023-04-17T11:28:05.828Z,39.08
2023-04-17T11:30:37.584Z,38.08
2023-04-17T11:33:08.125Z,37.60
2023-04-17T11:35:37.873Z,39.40
2023-04-17T11:38:11.845Z,37.50
2023-04-17T11:40:52.509Z,37.00
2023-04-17T11:43:21.554Z,37.03
2023-04-17T11:45:51.944Z,35.10
2023-04-17T11:48:23.737Z,34.40
2023-04-17T11:50:55.913Z,34.67
2023-04-17T11:53:25.666Z,33.83
2023-04-17T11:56:13.432Z,32.65
2023-04-17T11:58:47.901Z,32.40
2023-04-17T12:01:15.798Z,32.22
2023-04-17T12:03:44.827Z,34.67
2023-04-17T12:06:17.061Z,35.05
2023-04-17T12:08:54.476Z,34.35
2023-04-17T12:11:32.962Z,33.60
2023-04-17T12:14:05.464Z,34.30
2023-04-17T12:16:32.710Z,34.20
2023-04-17T12:19:00.008Z,34.38
2023-04-17T12:21:27.534Z,33.03
2023-04-17T12:23:55.091Z,33.00
2023-04-17T12:26:22.442Z,32.65
2023-04-17T12:28:52.720Z,33.72
2023-04-17T12:31:19.875Z,33.78
2023-04-17T12:33:47.891Z,35.63
2023-04-17T12:36:15.363Z,36.08
2023-04-17T12:38:44.018Z,36.35
2023-04-17T12:41:11.299Z,37.58
2023-04-17T12:43:40.934Z,34.60
2023-04-17T12:46:08.336Z,34.53
2023-04-17T12:48:35.822Z,34.35
2023-04-17T12:51:04.182Z,34.55
2023-04-17T12:53:31.700Z,35.33
2023-04-17T12:55:58.997Z,36.05
2023-04-17T12:58:27.272Z,36.65
2023-04-17T13:00:55.601Z,38.33
2023-04-17T13:03:23.095Z,39.33
2023-04-17T13:05:53.054Z,37.97
2023-04-17T13:08:20.616Z,38.92
2023-04-17T13:10:47.984Z,40.67
2023-04-17T13:13:16.567Z,38.05
2023-04-17T13:15:47.637Z,36.40
2023-04-17T13:18:16.164Z,36.75
2023-04-17T13:20:43.404Z,36.60
2023-04-17T13:23:12.112Z,34.03
2023-04-17T13:25:39.297Z,36.67
2023-04-17T13:28:06.783Z,34.75
2023-04-17T13:30:35.608Z,38.20
2023-04-17T13:33:02.885Z,35.33
2023-04-17T13:35:30.236Z,35.10
2023-04-17T13:38:01.084Z,34.60
2023-04-17T13:40:30.086Z,33.67
2023-04-17T13:43:00.664Z,37.03
2023-04-17T13:45:28.229Z,30.60
2023-04-17T13:47:55.731Z,30.85
2023-04-17T13:50:23.251Z,31.80
2023-04-17T13:52:50.607Z,31.85
2023-04-17T13:55:18.147Z,31.08
2023-04-17T13:57:45.715Z,32.00
2023-04-17T14:00:14.129Z,31.15
2023-04-17T14:02:41.647Z,29.70
2023-04-17T14:05:09.671Z,32.10
2023-04-17T14:07:38.155Z,30.75
2023-04-17T14:10:06.246Z,29.70
2023-04-17T14:12:33.413Z,29.83
2023-04-17T14:15:01.812Z,28.85
2023-04-17T14:17:29.601Z,30.20
2023-04-17T14:19:56.760Z,31.98
2023-04-17T14:22:24.042Z,30.17
2023-04-17T14:24:53.234Z,28.35
2023-04-17T14:27:21.607Z,29.92
2023-04-17T14:29:48.683Z,28.55
2023-04-17T14:32:16.128Z,31.40
2023-04-17T14:34:43.583Z,30.58
2023-04-17T14:37:11.092Z,28.38
2023-04-17T14:39:38.532Z,28.48
2023-04-17T14:42:06.090Z,24.75
2023-04-17T14:44:35.746Z,15.07
2023-04-17T14:47:03.173Z,10.07
2023-04-17T14:49:30.867Z,9.07
2023-04-17T14:51:57.938Z,8.98
2023-04-17T14:54:25.517Z,8.68
2023-04-17T14:56:52.934Z,8.95
2023-04-17T14:59:20.362Z,9.15
2023-04-17T15:01:47.907Z,11.13
2023-04-17T15:04:15.356Z,9.68
2023-04-17T15:06:43.285Z,10.88
2023-04-17T15:09:11.113Z,11.13
2023-04-17T15:11:38.756Z,9.45
2023-04-17T15:14:06.395Z,10.38
2023-04-17T15:16:34.201Z,11.35
2023-04-17T15:19:03.463Z,12.35
2023-04-17T15:21:31.437Z,12.95
2023-04-17T15:23:58.832Z,16.50
2023-04-17T15:26:27.663Z,18.30
2023-04-17T15:28:54.754Z,18.75
2023-04-17T15:31:22.293Z,20.10
2023-04-17T15:33:51.716Z,17.90
2023-04-17T15:36:19.176Z,19.42
2023-04-17T15:38:46.741Z,18.38
2023-04-17T15:41:15.156Z,19.92
2023-04-17T15:43:42.553Z,16.83
2023-04-17T15:46:10.125Z,17.33
2023-04-17T15:48:37.474Z,19.90
2023-04-17T15:51:05.174Z,16.95
2023-04-17T15:53:33.051Z,15.90
2023-04-17T15:56:01.581Z,17.55
2023-04-17T15:58:28.849Z,19.17
2023-04-17T16:00:56.366Z,25.95
2023-04-17T16:03:23.863Z,22.02
2023-04-17T16:05:57.376Z,27.60
2023-04-17T16:08:26.021Z,25.90
2023-04-17T16:10:54.266Z,26.17
2023-04-17T16:13:21.754Z,27.52
2023-04-17T16:15:49.851Z,29.50
2023-04-17T16:18:17.141Z,32.72
2023-04-17T16:20:44.784Z,35.03
2023-04-17T16:23:12.106Z,39.58
2023-04-17T16:25:39.845Z,44.75
2023-04-17T16:28:07.992Z,31.55
2023-04-17T16:30:35.583Z,32.20
2023-04-17T16:33:03.026Z,27.83
2023-04-17T16:35:30.465Z,27.77
2023-04-17T16:37:57.866Z,25.98
2023-04-17T16:40:26.985Z,27.35
2023-04-17T16:42:56.399Z,26.95
2023-04-17T16:45:23.880Z,27.50
2023-04-17T16:47:57.492Z,31.70
2023-04-17T16:52:53.339Z,45.38
2023-04-17T16:55:20.838Z,31.83
2023-04-17T16:57:48.353Z,30.38
2023-04-17T17:00:15.898Z,29.15
2023-04-17T17:02:43.652Z,27.33
2023-04-17T17:05:11.236Z,25.70
2023-04-17T17:07:45.096Z,27.42
2023-04-17T17:10:12.276Z,27.27
2023-04-17T17:12:39.746Z,27.50
2023-04-17T17:15:09.564Z,26.48
2023-04-17T17:17:37.101Z,26.33
2023-04-17T17:20:04.945Z,31.00
2023-04-17T17:22:34.794Z,30.73
2023-04-17T17:25:03.812Z,36.28
2023-04-17T17:27:31.141Z,27.77
2023-04-17T17:30:00.360Z,25.20
2023-04-17T17:32:34.287Z,42.78
2023-04-17T17:35:02.144Z,38.13
2023-04-17T17:37:29.799Z,35.42
2023-04-17T17:39:57.293Z,31.92
2023-04-17T17:42:24.561Z,35.25
2023-04-17T17:44:51.920Z,34.53
2023-04-17T17:47:19.749Z,53.17
2023-04-17T17:49:48.317Z,48.67
2023-04-17T17:52:17.287Z,68.05
2023-04-17T17:54:44.923Z,81.05
2023-04-17T17:57:13.643Z,59.45
2023-04-17T17:59:42.081Z,40.13
2023-04-17T18:02:10.073Z,55.58
2023-04-17T18:04:37.492Z,76.60
2023-04-17T18:07:05.176Z,47.85
2023-04-17T18:09:32.893Z,53.45
2023-04-17T18:12:00.772Z,47.80
2023-04-17T18:14:28.506Z,40.97
2023-04-17T18:16:58.371Z,47.72
2023-04-17T18:19:27.609Z,39.10
2023-04-17T18:21:55.617Z,31.92
2023-04-17T18:24:23.548Z,30.52
2023-04-17T18:26:51.795Z,30.92
2023-04-17T18:29:19.852Z,26.48
2023-04-17T18:31:47.646Z,30.52
2023-04-17T18:34:18.614Z,26.23
2023-04-17T18:36:52.366Z,30.80
2023-04-17T18:39:21.387Z,29.38
2023-04-17T18:41:50.060Z,28.38
2023-04-17T18:44:19.430Z,33.00
2023-04-17T18:46:53.684Z,34.17
2023-04-17T18:49:22.909Z,30.23
2023-04-17T18:51:50.789Z,31.88
2023-04-17T18:54:18.772Z,31.45
2023-04-17T18:56:48.004Z,33.38
2023-04-17T18:59:16.431Z,33.83
2023-04-17T19:01:44.603Z,32.28
2023-04-17T19:04:12.679Z,36.95
2023-04-17T19:06:41.293Z,39.10
2023-04-17T19:09:09.306Z,36.92
2023-04-17T19:11:37.346Z,36.83
2023-04-17T19:14:05.520Z,37.75
2023-04-17T19:16:33.559Z,37.45
2023-04-17T19:19:02.573Z,36.70
2023-04-17T19:21:32.407Z,37.67
2023-04-17T19:24:01.651Z,43.45
2023-04-17T19:26:29.324Z,43.33
2023-04-17T19:28:59.019Z,43.50
2023-04-17T19:31:28.283Z,41.85
2023-04-17T19:33:57.860Z,44.47
2023-04-17T19:36:27.568Z,45.33
2023-04-17T19:39:01.282Z,45.03
2023-04-17T19:41:31.210Z,42.65
2023-04-17T19:43:58.947Z,44.38
2023-04-17T19:46:28.165Z,43.92
2023-04-17T19:48:56.456Z,43.88
2023-04-17T19:51:28.209Z,44.28
2023-04-17T19:53:56.516Z,46.97
2023-04-17T19:56:25.387Z,43.80
2023-04-17T19:58:53.004Z,45.88
2023-04-17T20:01:20.767Z,45.72
2023-04-17T20:03:48.218Z,45.25
2023-04-17T20:06:16.965Z,50.58
2023-04-17T20:08:48.183Z,49.13
2023-04-17T20:11:16.940Z,46.28
2023-04-17T20:13:44.360Z,46.72
2023-04-17T20:16:12.339Z,46.40
2023-04-17T20:18:50.100Z,43.95
2023-04-17T20:21:17.914Z,47.45
2023-04-17T20:23:45.151Z,49.38
2023-04-17T20:26:12.682Z,49.25
2023-04-17T20:28:40.558Z,46.00
2023-04-17T20:31:10.525Z,45.40
2023-04-17T20:33:37.884Z,46.67
2023-04-17T20:36:06.477Z,45.97
2023-04-17T20:38:34.094Z,41.60
2023-04-17T20:41:01.754Z,39.67
2023-04-17T20:43:33.197Z,36.47
2023-04-17T20:46:03.121Z,37.80
2023-04-17T20:48:31.089Z,36.80
2023-04-17T20:51:02.240Z,36.13
2023-04-17T20:53:29.920Z,36.00
2023-04-17T20:55:58.143Z,32.30
2023-04-17T20:58:25.713Z,32.08
2023-04-17T21:01:01.308Z,31.95
2023-04-17T21:03:31.336Z,31.35
2023-04-17T21:05:59.136Z,31.13
2023-04-17T21:08:26.889Z,29.65
2023-04-17T21:11:01.417Z,29.80
2023-04-17T21:13:28.917Z,29.00
2023-04-17T21:16:02.630Z,27.25
2023-04-17T21:20:56.723Z,24.58
2023-04-17T21:23:24.291Z,25.60
2023-04-17T21:25:53.799Z,24.85
2023-04-17T21:28:22.286Z,26.38
2023-04-17T21:30:51.654Z,25.52
2023-04-17T21:33:19.279Z,27.45
2023-04-17T21:35:46.612Z,28.40
2023-04-17T21:38:14.583Z,24.73
2023-04-17T21:40:51.011Z,25.38
2023-04-17T21:43:19.856Z,22.65
2023-04-17T21:45:47.346Z,23.83
2023-04-17T21:48:16.131Z,23.83
2023-04-17T21:50:43.851Z,23.45
2023-04-17T21:53:11.145Z,24.77
2023-04-17T21:55:39.554Z,26.50
2023-04-17T21:58:07.608Z,25.80
2023-04-17T22:00:36.154Z,21.67
2023-04-17T22:03:04.585Z,20.33
2023-04-17T22:05:32.058Z,20.77
2023-04-17T22:07:59.715Z,19.73
2023-04-17T22:10:34.035Z,18.67
2023-04-17T22:13:01.625Z,20.13
2023-04-17T22:15:29.018Z,19.05
2023-04-17T22:17:56.409Z,19.73
2023-04-17T22:20:23.946Z,19.63
2023-04-17T22:23:28.854Z,19.55
2023-04-17T22:26:53.078Z,18.77
2023-04-17T22:30:16.193Z,18.77
2023-04-17T22:33:02.028Z,18.33
2023-04-17T22:35:31.686Z,19.30
2023-04-17T22:38:18.072Z,18.65
2023-04-17T22:41:22.861Z,19.10
2023-04-17T22:44:09.082Z,18.58
2023-04-17T22:46:54.762Z,18.70
2023-04-17T22:49:41.814Z,17.05
2023-04-17T22:52:33.725Z,18.02
2023-04-17T22:55:56.890Z,17.92
2023-04-17T22:58:24.367Z,16.35
2023-04-17T23:01:12.580Z,17.50
2023-04-17T23:03:40.854Z,17.40
2023-04-17T23:06:44.970Z,16.15
2023-04-17T23:09:12.460Z,16.73
2023-04-17T23:11:39.954Z,15.50
2023-04-17T23:14:07.812Z,16.10
2023-04-17T23:16:34.856Z,16.50
2023-04-17T23:19:02.068Z,16.95
2023-04-17T23:21:30.368Z,16.20
2023-04-17T23:23:57.784Z,16.88
2023-04-17T23:26:26.115Z,15.85
2023-04-17T23:28:59.430Z,16.88
2023-04-17T23:31:27.084Z,17.23
2023-04-17T23:33:54.248Z,17.73
2023-04-17T23:36:21.722Z,18.40
2023-04-17T23:38:49.198Z,19.23
2023-04-17T23:41:16.619Z,19.42
2023-04-17T23:43:44.082Z,20.38
2023-04-17T23:46:12.665Z,20.02
2023-04-17T23:48:42.097Z,17.25
2023-04-17T23:51:09.606Z,17.10
2023-04-17T23:53:37.004Z,17.85
2023-04-17T23:56:04.607Z,17.52
2023-04-17T23:58:33.027Z,16.70
